Time;durP1;ratioP1;P1;durP2;ratioP2;P2;SDS_P1;SDS_P2;PMS_P1;PMS_P2;Temp;Humidity;BMP_temperature;BMP_pressure;BME280_temperature;BME280_humidity;BME280_pressure;Samples;Min_cycle;Max_cycle;Signal;HPM_P1;HPM_P2
2022/05/19 00:00:00;;;;;;;;;;;;;;;23.93;42.48;101759.53;4923281;29;19915;-82
2022/05/19 00:02:45;;;;;;;;;;;;;;;23.84;42.26;101763.41;4933868;29;19915;-81
2022/05/19 00:05:30;;;;;;;;;;;;;;;23.80;42.01;101764.56;4921402;29;19915;-80
2022/05/19 00:08:15;;;;;;;;;;;;;;;23.82;40.61;101759.44;4919415;29;19919;-80
2022/05/19 00:11:04;;;;;;;;;;;;;;;23.78;41.48;101761.34;4918485;29;19915;-81
2022/05/19 00:13:49;;;;;;;;;;;;;;;23.74;40.23;101758.53;4922492;29;19915;-80
2022/05/19 00:16:33;;;;;;;;;;;;;;;23.65;41.50;101766.38;4926156;29;19918;-80
2022/05/19 00:19:18;;;;;;;;;;;;;;;23.63;40.83;101760.38;4937091;29;19919;-78
2022/05/19 00:22:04;;;;;;;;;;;;;;;23.56;41.34;101760.31;4922911;29;19915;-80
2022/05/19 00:24:49;;;;;;;;;;;;;;;23.50;42.25;101763.81;4937423;29;19915;-80
2022/05/19 00:27:33;;;;;;;;;;;;;;;23.48;42.72;101757.81;4936474;29;20377;-79
2022/05/19 00:30:17;;;;;;;;;;;;;;;23.44;41.73;101760.53;4945855;28;19914;-82
2022/05/19 00:33:02;;;;;;;;;;;;;;;23.41;42.12;101764.88;4939081;29;20496;-81
2022/05/19 00:35:47;;;;;;;;;;;;;;;23.46;41.79;101762.97;4933875;29;19918;-82
2022/05/19 00:38:31;;;;;;;;;;;;;;;23.48;41.40;101764.16;4946240;28;19924;-80
2022/05/19 00:41:17;;;;;;;;;;;;;;;23.66;43.22;101761.63;4932230;29;19918;-79
2022/05/19 00:44:04;;;;;;;;;;;;;;;23.68;43.60;101760.06;4924062;29;19915;-80
2022/05/19 00:46:51;;;;;;;;;;;;;;;23.67;41.10;101763.22;4932115;29;20344;-80
2022/05/19 00:49:38;;;;;;;;;;;;;;;23.56;40.91;101762.28;4938597;29;19919;-81
2022/05/19 00:52:27;;;;;;;;;;;;;;;23.46;41.58;101758.22;4936724;29;19914;-80
2022/05/19 00:55:17;;;;;;;;;;;;;;;23.45;42.51;101762.16;4936285;29;19915;-81
2022/05/19 00:58:06;;;;;;;;;;;;;;;23.51;41.48;101765.41;4934232;29;20387;-79
2022/05/19 01:00:50;;;;;;;;;;;;;;;23.51;42.80;101760.66;4920624;29;19914;-80
2022/05/19 01:03:40;;;;;;;;;;;;;;;23.69;44.77;101761.66;4939466;29;20115;-79
2022/05/19 01:06:27;;;;;;;;;;;;;;;23.66;43.50;101761.63;4927945;29;19915;-78
2022/05/19 01:09:13;;;;;;;;;;;;;;;23.60;40.51;101761.16;4936071;29;19918;-79
2022/05/19 01:11:57;;;;;;;;;;;;;;;23.55;40.50;101760.69;4935893;29;19919;-78
2022/05/19 01:14:43;;;;;;;;;;;;;;;23.52;40.50;101759.44;4951824;23;20305;-79
2022/05/19 01:17:28;;;;;;;;;;;;;;;23.49;40.75;101768.56;4907652;29;19920;-79
2022/05/19 01:20:23;;;;;;;;;;;;;;;23.64;43.12;101763.97;4914163;29;19915;-81
2022/05/19 01:23:13;;;;;;;;;;;;;;;23.54;41.43;101770.19;4922484;29;19915;-81
2022/05/19 01:25:58;;;;;;;;;;;;;;;23.51;41.51;101769.00;4931978;29;19914;-80
2022/05/19 01:28:43;;;;;;;;;;;;;;;23.41;41.36;101762.09;4931763;29;19923;-80
2022/05/19 01:31:31;;;;;;;;;;;;;;;23.50;42.13;101764.59;4913499;29;19916;-81
2022/05/19 01:34:17;;;;;;;;;;;;;;;23.43;40.92;101758.91;4914832;29;19915;-80
2022/05/19 01:37:02;;;;;;;;;;;;;;;23.35;40.55;101760.03;4912602;29;19919;-80
2022/05/19 01:40:14;;;;;;;;;;;;;;;23.24;40.25;101762.66;4910380;29;19915;-80
2022/05/19 01:43:03;;;;;;;;;;;;;;;23.34;40.03;101759.22;4902457;29;19915;-80
2022/05/19 01:46:09;;;;;;;;;;;;;;;23.52;40.83;101765.00;4929681;29;19915;-80
2022/05/19 01:49:00;;;;;;;;;;;;;;;23.55;41.30;101763.47;4917793;29;19919;-80
2022/05/19 01:51:50;;;;;;;;;;;;;;;23.58;41.05;101771.84;4915852;29;19915;-80
2022/05/19 01:54:46;;;;;;;;;;;;;;;23.60;39.76;101763.94;4911306;29;19915;-79
2022/05/19 01:57:36;;;;;;;;;;;;;;;23.52;38.56;101765.00;4898000;29;19916;-80
2022/05/19 02:00:23;;;;;;;;;;;;;;;23.55;41.79;101761.50;4910850;29;19919;-81
2022/05/19 02:03:20;;;;;;;;;;;;;;;23.46;38.94;101769.31;4929838;29;19914;-81
2022/05/19 02:06:17;;;;;;;;;;;;;;;23.48;39.50;101768.91;4905433;29;20325;-78
2022/05/19 02:09:12;;;;;;;;;;;;;;;23.46;41.18;101768.50;4904392;29;20324;-81
2022/05/19 02:11:57;;;;;;;;;;;;;;;23.35;40.90;101774.69;4927417;29;19915;-80
2022/05/19 02:14:48;;;;;;;;;;;;;;;23.32;39.95;101774.63;4913046;29;19915;-79
2022/05/19 02:17:34;;;;;;;;;;;;;;;23.27;40.42;101784.09;4914375;29;19915;-80
2022/05/19 02:20:20;;;;;;;;;;;;;;;23.17;40.81;101778.38;4908236;29;20393;-80
2022/05/19 02:23:05;;;;;;;;;;;;;;;23.14;40.31;101781.94;4901629;29;19915;-79
2022/05/19 02:25:51;;;;;;;;;;;;;;;23.31;38.72;101781.38;4919954;29;19915;-79
2022/05/19 02:28:35;;;;;;;;;;;;;;;23.21;39.10;101780.03;4927792;29;20376;-81
2022/05/19 02:31:19;;;;;;;;;;;;;;;23.23;41.49;101774.13;4912532;29;19918;-80
2022/05/19 02:34:03;;;;;;;;;;;;;;;23.29;39.06;101772.63;4903481;29;19915;-81
2022/05/19 02:36:48;;;;;;;;;;;;;;;23.23;38.94;101782.44;4931521;29;19915;-80
2022/05/19 02:39:32;;;;;;;;;;;;;;;23.18;39.15;101778.03;4915722;29;19919;-80
2022/05/19 02:42:17;;;;;;;;;;;;;;;23.02;39.03;101772.63;4920082;29;19914;-81
2022/05/19 02:45:01;;;;;;;;;;;;;;;22.99;40.30;101776.16;4907026;29;19915;-81
2022/05/19 02:47:45;;;;;;;;;;;;;;;22.99;41.27;101780.91;4915475;29;19915;-81
2022/05/19 02:50:31;;;;;;;;;;;;;;;22.99;41.15;101784.50;4921860;29;19919;-81
2022/05/19 02:53:17;;;;;;;;;;;;;;;22.94;41.04;101775.69;4912663;29;19915;-80
2022/05/19 02:56:02;;;;;;;;;;;;;;;22.92;40.48;101781.59;4895660;29;19916;-80
2022/05/19 02:58:46;;;;;;;;;;;;;;;22.99;40.72;101784.50;4897363;29;19916;-81
2022/05/19 03:01:31;;;;;;;;;;;;;;;23.00;40.72;101788.06;4881790;29;19916;-80
2022/05/19 03:04:15;;;;;;;;;;;;;;;22.92;40.91;101781.59;4881477;29;19916;-80
2022/05/19 03:07:00;;;;;;;;;;;;;;;22.87;41.64;101793.03;4928252;29;19915;-80
2022/05/19 03:09:45;;;;;;;;;;;;;;;22.78;41.53;101795.25;4929496;29;20307;-80
2022/05/19 03:12:31;;;;;;;;;;;;;;;22.71;42.94;101795.13;4910162;29;19919;-80
2022/05/19 03:15:15;;;;;;;;;;;;;;;22.72;43.08;101798.72;4934860;29;20304;-79
2022/05/19 03:18:00;;;;;;;;;;;;;;;22.70;43.88;101796.28;4933546;29;19914;-80
2022/05/19 03:20:45;;;;;;;;;;;;;;;22.67;44.08;101797.03;4917162;29;19915;-79
2022/05/19 03:23:30;;;;;;;;;;;;;;;22.78;44.36;101808.31;4899789;29;19916;-79
2022/05/19 03:26:14;;;;;;;;;;;;;;;22.71;44.42;101795.13;4916002;29;19915;-79
2022/05/19 03:28:59;;;;;;;;;;;;;;;22.71;45.05;101800.69;4905062;29;19919;-80
2022/05/19 03:31:44;;;;;;;;;;;;;;;22.66;45.01;101798.19;4927672;29;19915;-79
2022/05/19 03:34:28;;;;;;;;;;;;;;;22.67;44.26;101796.22;4932901;29;19915;-79
2022/05/19 03:37:13;;;;;;;;;;;;;;;22.67;43.68;101793.44;4925006;29;20304;-79
2022/05/19 03:39:57;;;;;;;;;;;;;;;22.61;44.58;101795.72;4909740;29;19915;-79
2022/05/19 03:42:41;;;;;;;;;;;;;;;22.59;43.34;101807.22;4899750;29;19916;-79
2022/05/19 03:45:26;;;;;;;;;;;;;;;22.64;43.31;101800.53;4899288;29;19915;-79
2022/05/19 03:48:11;;;;;;;;;;;;;;;22.64;42.63;101800.53;4913452;29;20380;-80
2022/05/19 03:50:55;;;;;;;;;;;;;;;22.62;42.21;101797.34;4910545;29;19915;-82
2022/05/19 03:53:40;;;;;;;;;;;;;;;22.69;42.42;101791.91;4920323;29;19966;-82
2022/05/19 03:56:24;;;;;;;;;;;;;;;22.70;42.53;101801.03;4931868;29;20372;-82
2022/05/19 03:59:09;;;;;;;;;;;;;;;22.69;44.03;101799.44;4921892;29;19914;-81
2022/05/19 04:01:53;;;;;;;;;;;;;;;22.73;43.67;101795.56;4920847;29;19914;-81
2022/05/19 04:04:38;;;;;;;;;;;;;;;22.67;45.18;101801.75;4921163;29;19919;-81
2022/05/19 04:07:22;;;;;;;;;;;;;;;22.63;44.42;101810.03;4919968;29;19923;-81
2022/05/19 04:10:08;;;;;;;;;;;;;;;22.63;43.42;101809.22;4901924;29;20297;-81
2022/05/19 04:12:52;;;;;;;;;;;;;;;22.63;42.88;101810.03;4904069;29;20389;-81
2022/05/19 04:15:37;;;;;;;;;;;;;;;22.69;42.70;101804.97;4933708;29;19915;-81
2022/05/19 04:18:21;;;;;;;;;;;;;;;22.67;42.92;101804.53;4910880;29;20393;-80
2022/05/19 04:21:06;;;;;;;;;;;;;;;22.67;43.67;101815.63;4913672;29;19916;-79
2022/05/19 04:23:51;;;;;;;;;;;;;;;22.71;43.43;101817.31;4917027;29;19916;-81
2022/05/19 04:26:36;;;;;;;;;;;;;;;22.76;43.70;101819.78;4909350;29;19915;-81
2022/05/19 04:29:20;;;;;;;;;;;;;;;22.82;44.03;101823.84;4906739;29;19920;-80
2022/05/19 04:32:05;;;;;;;;;;;;;;;22.87;43.44;101826.31;4925409;29;19915;-80
2022/05/19 04:34:50;;;;;;;;;;;;;;;22.87;43.84;101829.09;4922725;29;19915;-81
2022/05/19 04:37:35;;;;;;;;;;;;;;;22.94;44.62;101829.22;4907954;29;19915;-80
2022/05/19 04:40:19;;;;;;;;;;;;;;;22.94;44.13;101833.94;4916890;29;19915;-81
2022/05/19 04:43:04;;;;;;;;;;;;;;;22.84;44.32;101834.59;4899795;29;19915;-81
2022/05/19 04:45:50;;;;;;;;;;;;;;;22.86;45.13;101832.22;4900098;29;19916;-80
2022/05/19 04:48:35;;;;;;;;;;;;;;;22.98;45.24;101840.34;4903502;29;20312;-80
2022/05/19 04:51:19;;;;;;;;;;;;;;;23.02;44.99;101839.22;4899436;29;20304;-79
2022/05/19 04:54:03;;;;;;;;;;;;;;;22.94;44.42;101834.75;4920131;29;19915;-79
2022/05/19 04:56:50;;;;;;;;;;;;;;;23.06;44.61;101836.50;4912462;29;19915;-79
2022/05/19 04:59:38;;;;;;;;;;;;;;;23.08;44.46;101836.13;4925827;29;19915;-79
2022/05/19 05:02:23;;;;;;;;;;;;;;;23.09;44.35;101843.28;4932205;29;19919;-78
2022/05/19 05:05:07;;;;;;;;;;;;;;;23.05;44.71;101848.00;4933880;29;20288;-79
2022/05/19 05:07:52;;;;;;;;;;;;;;;23.02;45.15;101844.78;4917767;29;19919;-80
2022/05/19 05:10:37;;;;;;;;;;;;;;;22.98;44.85;101849.47;4931668;29;19919;-80
2022/05/19 05:13:21;;;;;;;;;;;;;;;23.08;45.31;101855.56;4922204;29;19915;-80
2022/05/19 05:16:08;;;;;;;;;;;;;;;23.16;45.36;101871.16;4926441;29;20308;-78
2022/05/19 05:18:52;;;;;;;;;;;;;;;23.18;45.16;101860.47;4930973;29;20396;-78
2022/05/19 05:21:37;;;;;;;;;;;;;;;23.16;45.21;101873.94;4914140;29;19915;-79
2022/05/19 05:24:22;;;;;;;;;;;;;;;23.13;45.88;101869.13;4913940;29;19915;-80
2022/05/19 05:27:07;;;;;;;;;;;;;;;23.08;45.28;101869.44;4897661;29;19915;-80
2022/05/19 05:29:52;;;;;;;;;;;;;;;23.11;45.58;101869.47;4910419;29;20353;-82
2022/05/19 05:32:37;;;;;;;;;;;;;;;23.05;45.50;101864.66;4898686;29;19915;-83
2022/05/19 05:35:22;;;;;;;;;;;;;;;23.10;44.81;101867.09;4910712;29;19915;-82
2022/05/19 05:38:06;;;;;;;;;;;;;;;23.08;44.71;101869.44;4891856;29;19915;-81
2022/05/19 05:40:51;;;;;;;;;;;;;;;23.17;43.80;101872.75;4897706;29;19915;-81
2022/05/19 05:43:39;;;;;;;;;;;;;;;23.06;42.52;101882.91;4912336;29;19919;-80
2022/05/19 05:46:23;;;;;;;;;;;;;;;23.05;43.74;101890.41;4910465;29;19915;-80
2022/05/19 05:49:08;;;;;;;;;;;;;;;23.13;42.22;101888.53;4914204;29;19919;-81
2022/05/19 05:51:52;;;;;;;;;;;;;;;23.08;41.30;101883.31;4912939;29;19920;-82
2022/05/19 05:54:37;;;;;;;;;;;;;;;23.11;41.17;101893.69;4904891;29;19915;-81
2022/05/19 05:57:21;;;;;;;;;;;;;;;23.13;42.38;101896.88;4933231;29;19915;-83
2022/05/19 06:00:07;;;;;;;;;;;;;;;23.13;42.32;101888.53;4913928;29;19915;-78
2022/05/19 06:02:56;;;;;;;;;;;;;;;23.19;40.47;101889.84;4891729;29;20301;-82
2022/05/19 06:05:40;;;;;;;;;;;;;;;23.34;41.13;101894.44;4898502;29;19915;-80
2022/05/19 06:08:25;;;;;;;;;;;;;;;23.32;40.03;101891.22;4896909;29;19915;-81
2022/05/19 06:11:09;;;;;;;;;;;;;;;23.34;39.47;101889.69;4910754;29;19916;-82
2022/05/19 06:13:54;;;;;;;;;;;;;;;23.35;39.64;101891.31;4913540;29;20041;-82
2022/05/19 06:16:39;;;;;;;;;;;;;;;23.38;39.55;101890.53;4916328;29;19915;-81
2022/05/19 06:19:24;;;;;;;;;;;;;;;23.39;37.89;101883.81;4911624;29;19915;-82
2022/05/19 06:22:08;;;;;;;;;;;;;;;23.43;38.08;101890.22;4915258;29;19915;-81
2022/05/19 06:24:54;;;;;;;;;;;;;;;23.51;37.44;101887.59;4897105;29;20384;-80
2022/05/19 06:27:38;;;;;;;;;;;;;;;24.17;36.00;101887.69;4897739;29;20372;-78
2022/05/19 06:30:22;;;;;;;;;;;;;;;24.64;32.70;101889.78;4909259;29;19919;-79
2022/05/19 06:33:07;;;;;;;;;;;;;;;25.71;31.82;101902.59;4891513;29;19915;-79
2022/05/19 06:35:52;;;;;;;;;;;;;;;26.88;29.51;101907.78;4928956;29;19915;-80
2022/05/19 06:38:37;;;;;;;;;;;;;;;26.77;29.21;101908.53;4916968;29;19915;-80
2022/05/19 06:44:25;;;;;;;;;;;;;;;26.23;28.84;101901.25;4882413;29;20385;-84
2022/05/19 06:47:13;;;;;;;;;;;;;;;25.41;30.16;101902.78;4913988;29;19915;-84
2022/05/19 06:49:58;;;;;;;;;;;;;;;25.71;31.95;101894.22;4897609;29;20391;-83
2022/05/19 06:52:51;;;;;;;;;;;;;;;25.46;30.13;101896.03;4882625;29;19916;-85
2022/05/19 06:55:36;;;;;;;;;;;;;;;24.42;30.47;101893.53;4922133;29;19915;-86
2022/05/19 06:58:20;;;;;;;;;;;;;;;24.35;30.43;101890.66;4925807;29;19914;-87
2022/05/19 07:01:05;;;;;;;;;;;;;;;24.99;29.82;101888.56;4926418;29;19915;-89
2022/05/19 07:03:50;;;;;;;;;;;;;;;25.00;28.74;101890.94;4925647;29;19915;-88
2022/05/19 07:06:34;;;;;;;;;;;;;;;25.02;29.07;101891.34;4911922;29;19927;-87
2022/05/19 07:09:21;;;;;;;;;;;;;;;25.85;28.57;101888.72;4902736;29;19923;-88
2022/05/19 07:12:07;;;;;;;;;;;;;;;26.58;28.28;101894.16;4919476;29;19915;-87
2022/05/19 07:17:52;;;;;;;;;;;;;;;25.54;27.23;101890.13;4874934;29;19924;-79
2022/05/19 07:20:47;;;;;;;;;;;;;;;25.96;27.55;101891.56;4872087;29;20311;-80
2022/05/19 07:23:32;;;;;;;;;;;;;;;27.11;26.24;101897.03;4883182;29;19916;-79
2022/05/19 07:26:17;;;;;;;;;;;;;;;25.09;28.59;101896.19;4895956;29;19916;-81
2022/05/19 07:29:01;;;;;;;;;;;;;;;25.54;29.48;101897.69;4894030;29;19919;-79
2022/05/19 07:31:46;;;;;;;;;;;;;;;25.75;31.00;101895.03;4880507;29;19919;-77
2022/05/19 07:34:32;;;;;;;;;;;;;;;25.36;29.55;101897.56;4881335;29;19916;-80
2022/05/19 07:37:16;;;;;;;;;;;;;;;24.92;28.51;101900.41;4891908;29;19915;-80
2022/05/19 07:40:01;;;;;;;;;;;;;;;25.45;29.17;101894.44;4891630;29;19915;-78
2022/05/19 07:42:46;;;;;;;;;;;;;;;25.48;28.98;101904.81;4880268;29;20382;-77
2022/05/19 07:45:32;;;;;;;;;;;;;;;25.74;28.72;101906.59;4881581;29;19915;-80
2022/05/19 07:48:16;;;;;;;;;;;;;;;25.91;28.36;101905.88;4892497;29;20386;-80
2022/05/19 07:51:02;;;;;;;;;;;;;;;25.93;28.53;101897.91;4885257;29;19932;-80
2022/05/19 07:53:46;;;;;;;;;;;;;;;25.80;28.53;101908.59;4880656;29;20310;-81
2022/05/19 07:56:31;;;;;;;;;;;;;;;25.76;28.36;101912.56;4890478;29;19916;-80
2022/05/19 07:59:16;;;;;;;;;;;;;;;25.81;28.41;101910.19;4880173;29;19915;-80
2022/05/19 08:02:01;;;;;;;;;;;;;;;25.83;28.75;101901.47;4880806;29;20267;-79
2022/05/19 08:04:45;;;;;;;;;;;;;;;25.72;28.72;101909.75;4879982;29;19916;-81
2022/05/19 08:07:30;;;;;;;;;;;;;;;25.71;28.62;101904.56;4896170;29;19916;-80
2022/05/19 08:10:25;;;;;;;;;;;;;;;25.68;28.83;101899.78;4895103;29;19919;-80
2022/05/19 08:16:15;;;;;;;;;;;;;;;25.64;28.71;101908.13;4895228;29;19916;-80
2022/05/19 08:18:59;;;;;;;;;;;;;;;25.70;28.40;101905.78;4893313;29;19916;-80
2022/05/19 08:21:44;;;;;;;;;;;;;;;25.70;28.70;101903.75;4897648;29;20208;-80
2022/05/19 08:24:30;;;;;;;;;;;;;;;25.81;28.29;101910.19;4895883;29;19916;-79
2022/05/19 08:27:17;;;;;;;;;;;;;;;26.09;27.86;101898.38;4883933;29;19915;-78
2022/05/19 08:30:02;;;;;;;;;;;;;;;26.05;28.21;101905.94;4873044;29;19923;-79
2022/05/19 08:32:47;;;;;;;;;;;;;;;26.23;27.76;101903.25;4895361;29;19915;-79
2022/05/19 08:35:32;;;;;;;;;;;;;;;26.21;28.37;101902.81;4879973;29;19916;-79
2022/05/19 08:38:16;;;;;;;;;;;;;;;26.15;27.97;101896.03;4887427;29;19915;-78
2022/05/19 08:41:04;;;;;;;;;;;;;;;26.15;27.32;101894.03;4891384;29;19920;-80
2022/05/19 08:43:56;;;;;;;;;;;;;;;26.18;27.33;101898.81;4880088;29;20407;-79
2022/05/19 08:46:42;;;;;;;;;;;;;;;26.21;27.60;101898.03;4879605;29;19919;-80
2022/05/19 08:49:41;;;;;;;;;;;;;;;26.28;27.88;101886.94;4891796;29;19919;-79
2022/05/19 08:52:27;;;;;;;;;;;;;;;26.33;28.17;101889.34;4892711;29;19916;-79
2022/05/19 08:55:14;;;;;;;;;;;;;;;26.31;27.63;101877.75;4896055;29;19916;-79
2022/05/19 08:58:10;;;;;;;;;;;;;;;26.17;28.54;101890.84;4890331;29;19915;-79
2022/05/19 09:01:02;;;;;;;;;;;;;;;26.24;27.68;101886.13;4879237;29;19916;-79
2022/05/19 09:03:56;;;;;;;;;;;;;;;26.24;27.42;101880.53;4878724;29;19916;-81
2022/05/19 09:09:52;;;;;;;;;;;;;;;26.36;28.23;101894.09;4877953;29;19924;-79
2022/05/19 09:12:39;;;;;;;;;;;;;;;26.28;27.63;101889.72;4894102;29;19915;-80
2022/05/19 09:15:23;;;;;;;;;;;;;;;26.41;27.60;101889.34;4891965;29;19919;-80
2022/05/19 09:18:08;;;;;;;;;;;;;;;26.51;27.62;101889.38;4902066;29;19915;-79
2022/05/19 09:20:54;;;;;;;;;;;;;;;26.48;27.50;101881.00;4874279;29;19923;-80
2022/05/19 09:23:42;;;;;;;;;;;;;;;26.65;28.06;101881.03;4879236;29;20375;-79
2022/05/19 09:26:45;;;;;;;;;;;;;;;26.64;27.88;101878.63;4895961;29;19916;-79
2022/05/19 09:29:44;;;;;;;;;;;;;;;26.77;27.44;101874.25;4889779;29;19919;-80
2022/05/19 09:32:37;;;;;;;;;;;;;;;26.77;27.46;101883.41;4890236;29;20383;-78
2022/05/19 09:35:37;;;;;;;;;;;;;;;26.88;27.71;101883.44;4878157;29;20130;-80
2022/05/19 09:38:35;;;;;;;;;;;;;;;26.94;27.56;101872.69;4879559;29;19915;-80
2022/05/19 09:41:23;;;;;;;;;;;;;;;27.09;27.44;101889.03;4886234;29;20303;-80
2022/05/19 09:44:13;;;;;;;;;;;;;;;27.14;28.02;101893.44;4887687;29;19916;-80
2022/05/19 09:46:58;;;;;;;;;;;;;;;26.97;28.10;101883.06;4859157;29;19916;-80
2022/05/19 09:49:48;;;;;;;;;;;;;;;26.88;28.47;101877.88;4871291;29;19939;-80
2022/05/19 09:52:33;;;;;;;;;;;;;;;26.88;28.42;101875.06;4886013;29;19915;-81
2022/05/19 09:55:21;;;;;;;;;;;;;;;27.14;28.72;101873.88;4881537;29;19915;-80
2022/05/19 09:58:08;;;;;;;;;;;;;;;27.18;28.40;101875.47;4888713;29;19915;-79
2022/05/19 10:00:57;;;;;;;;;;;;;;;27.21;29.11;101877.47;4881293;29;19916;-80
2022/05/19 10:04:00;;;;;;;;;;;;;;;27.33;29.21;101879.03;4882570;29;19920;-79
2022/05/19 10:06:55;;;;;;;;;;;;;;;27.42;27.98;101875.84;4892964;29;19919;-79
2022/05/19 10:09:43;;;;;;;;;;;;;;;27.57;28.95;101871.84;4877591;29;19920;-79
2022/05/19 10:12:31;;;;;;;;;;;;;;;27.62;28.28;101874.22;4892070;29;19915;-79
2022/05/19 10:15:18;;;;;;;;;;;;;;;27.65;28.03;101871.41;4897949;29;19916;-80
2022/05/19 10:18:12;;;;;;;;;;;;;;;27.72;28.04;101862.19;4908646;29;19937;-78
2022/05/19 10:21:06;;;;;;;;;;;;;;;27.74;28.11;101857.00;4901261;29;20394;-80
2022/05/19 10:24:00;;;;;;;;;;;;;;;27.83;28.88;101857.38;4885944;29;19982;-80
2022/05/19 10:26:50;;;;;;;;;;;;;;;27.87;29.99;101857.34;4899479;29;19923;-80
2022/05/19 10:32:57;;;;;;;;;;;;;;;27.95;29.75;101845.72;4891623;29;19916;-79
2022/05/19 10:35:48;;;;;;;;;;;;;;;27.88;29.80;101845.78;4876078;29;19919;-78
2022/05/19 10:38:48;;;;;;;;;;;;;;;27.95;29.97;101842.91;4880773;29;19916;-79
2022/05/19 10:41:42;;;;;;;;;;;;;;;28.04;30.14;101846.06;4878065;29;19919;-79
2022/05/19 10:44:46;;;;;;;;;;;;;;;28.11;31.05;101850.84;4891361;29;19916;-79
2022/05/19 10:47:47;;;;;;;;;;;;;;;28.06;30.95;101834.47;4878269;29;19915;-79
2022/05/19 10:50:36;;;;;;;;;;;;;;;28.15;30.48;101845.25;4911271;29;20406;-79
2022/05/19 10:53:22;;;;;;;;;;;;;;;28.17;30.68;101832.44;4895990;29;19915;-80
2022/05/19 10:56:06;;;;;;;;;;;;;;;28.20;30.69;101833.63;4913164;29;19923;-78
2022/05/19 10:58:54;;;;;;;;;;;;;;;28.35;30.37;101832.31;4894831;29;19915;-79
2022/05/19 11:01:51;;;;;;;;;;;;;;;28.34;31.35;101828.72;4893516;29;19916;-79
2022/05/19 11:04:55;;;;;;;;;;;;;;;28.44;30.60;101824.28;4879893;29;19916;-78
2022/05/19 11:07:45;;;;;;;;;;;;;;;28.43;31.28;101822.69;4889198;29;19915;-79
2022/05/19 11:10:33;;;;;;;;;;;;;;;28.41;30.62;101819.50;4898090;29;19923;-79
2022/05/19 11:13:34;;;;;;;;;;;;;;;28.39;31.15;101810.72;4896229;29;19920;-79
2022/05/19 11:16:33;;;;;;;;;;;;;;;28.36;30.49;101812.34;4880144;29;19924;-80
2022/05/19 11:19:23;;;;;;;;;;;;;;;28.47;30.80;101817.84;4884286;29;19915;-79
2022/05/19 11:22:11;;;;;;;;;;;;;;;28.53;30.56;101813.41;4880206;29;19916;-80
2022/05/19 11:28:11;;;;;;;;;;;;;;;28.52;30.49;101802.63;4894528;29;20611;-81
2022/05/19 11:30:58;;;;;;;;;;;;;;;28.47;29.64;101804.66;4882962;29;19919;-81
2022/05/19 11:33:46;;;;;;;;;;;;;;;28.56;29.99;101803.38;4896209;29;20386;-79
2022/05/19 11:36:37;;;;;;;;;;;;;;;28.60;30.34;101807.75;4880810;29;19919;-78
2022/05/19 11:39:31;;;;;;;;;;;;;;;28.66;30.54;101803.28;4891432;29;19916;-80
2022/05/19 11:42:16;;;;;;;;;;;;;;;28.74;29.66;101807.69;4887759;29;20294;-79
2022/05/19 11:45:02;;;;;;;;;;;;;;;28.81;29.21;101799.19;4893844;29;20394;-78
2022/05/19 11:58:12;;;;;;;;;;;;;;;28.73;31.02;101786.47;4885003;29;20378;-78
2022/05/19 12:00:59;;;;;;;;;;;;;;;28.70;31.10;101792.09;4899927;29;20402;-79
2022/05/19 12:04:27;;;;;;;;;;;;;;;28.75;30.65;101789.63;4895339;29;19919;-79
2022/05/19 12:07:11;;;;;;;;;;;;;;;28.73;30.18;101786.47;4887265;29;19916;-78
2022/05/19 12:09:59;;;;;;;;;;;;;;;28.69;30.01;101779.28;4877887;29;20152;-78
2022/05/19 12:12:50;;;;;;;;;;;;;;;28.74;30.24;101776.88;4878691;29;19924;-79
2022/05/19 12:15:34;;;;;;;;;;;;;;;28.71;29.77;101777.66;4882249;29;19919;-79
2022/05/19 12:18:27;;;;;;;;;;;;;;;28.83;29.83;101774.38;4879080;29;20399;-79
2022/05/19 12:21:20;;;;;;;;;;;;;;;28.89;29.82;101767.13;4881190;29;19920;-80
2022/05/19 12:24:07;;;;;;;;;;;;;;;28.83;30.39;101767.97;4878806;29;20307;-78
2022/05/19 12:27:09;;;;;;;;;;;;;;;28.88;29.90;101776.72;4876827;29;19915;-80
2022/05/19 12:29:59;;;;;;;;;;;;;;;28.84;30.77;101764.78;4894079;29;19919;-78
2022/05/19 12:32:44;;;;;;;;;;;;;;;28.90;30.20;101765.88;4879473;29;19915;-79
2022/05/19 12:35:30;;;;;;;;;;;;;;;29.04;30.24;101759.38;4904618;29;19916;-79
2022/05/19 12:38:29;;;;;;;;;;;;;;;28.90;30.35;101757.50;4901402;29;19920;-81
2022/05/19 12:41:23;;;;;;;;;;;;;;;28.95;30.65;101764.66;4902464;29;19919;-79
2022/05/19 12:44:26;;;;;;;;;;;;;;;29.11;30.32;101772.47;4896979;29;19915;-79
2022/05/19 12:47:19;;;;;;;;;;;;;;;29.14;30.21;101760.44;4893263;29;19916;-79
2022/05/19 12:50:12;;;;;;;;;;;;;;;29.17;29.76;101752.00;4893932;29;19919;-79
2022/05/19 12:53:05;;;;;;;;;;;;;;;29.17;30.73;101754.00;4876985;29;19916;-78
2022/05/19 12:55:53;;;;;;;;;;;;;;;29.06;29.69;101742.91;4877225;29;19923;-79
2022/05/19 12:58:42;;;;;;;;;;;;;;;28.81;29.72;101750.78;4879114;29;19915;-80
2022/05/19 13:01:44;;;;;;;;;;;;;;;28.98;29.90;101755.41;4891371;29;20294;-79
2022/05/19 13:04:29;;;;;;;;;;;;;;;29.07;29.08;101754.91;4877658;29;20298;-79
2022/05/19 13:07:23;;;;;;;;;;;;;;;29.18;29.62;101750.00;4879920;29;19919;-79
2022/05/19 13:10:19;;;;;;;;;;;;;;;29.18;29.12;101750.00;4881962;29;19919;-78
2022/05/19 13:13:07;;;;;;;;;;;;;;;29.14;29.58;101747.25;4875119;29;19919;-78
2022/05/19 13:15:57;;;;;;;;;;;;;;;29.20;29.35;101745.56;4925362;23;20498;-80
2022/05/19 13:18:46;;;;;;;;;;;;;;;29.20;28.91;101748.38;4935378;29;19934;-80
2022/05/19 13:21:37;;;;;;;;;;;;;;;29.28;29.43;101751.88;4937171;29;19914;-81
2022/05/19 13:24:24;;;;;;;;;;;;;;;29.27;28.59;101747.47;4936633;29;19914;-80
2022/05/19 13:30:20;;;;;;;;;;;;;;;29.19;29.17;101741.19;4925386;29;20276;-81
2022/05/19 13:33:11;;;;;;;;;;;;;;;29.28;29.41;101740.66;4918971;29;19915;-80
2022/05/19 13:35:57;;;;;;;;;;;;;;;29.25;29.07;101736.72;4914672;29;19923;-82
2022/05/19 13:38:41;;;;;;;;;;;;;;;29.19;29.76;101729.97;4921261;29;19915;-81
2022/05/19 13:41:26;;;;;;;;;;;;;;;29.09;29.60;101724.50;4916726;29;19915;-81
2022/05/19 13:44:12;;;;;;;;;;;;;;;29.06;29.64;101730.91;4917654;29;19915;-80
2022/05/19 13:46:57;;;;;;;;;;;;;;;29.01;29.63;101734.16;4914976;29;19915;-81
2022/05/19 13:49:41;;;;;;;;;;;;;;;28.93;29.87;101719.47;4942952;28;19915;-80
2022/05/19 13:52:28;;;;;;;;;;;;;;;28.73;30.02;101727.69;4931276;29;19922;-79
2022/05/19 13:55:22;;;;;;;;;;;;;;;28.73;29.60;101724.88;4926043;29;19915;-80
2022/05/19 13:58:17;;;;;;;;;;;;;;;28.71;30.40;101724.47;4932727;29;19915;-80
2022/05/19 14:01:06;;;;;;;;;;;;;;;28.78;29.72;101730.03;4931156;29;19915;-80
2022/05/19 14:03:53;;;;;;;;;;;;;;;28.77;30.08;101722.03;4930987;29;19914;-80
2022/05/19 14:06:41;;;;;;;;;;;;;;;28.78;29.92;101723.63;4929676;29;19915;-80
2022/05/19 14:09:27;;;;;;;;;;;;;;;28.63;29.99;101713.75;4918707;29;19915;-80
2022/05/19 14:12:31;;;;;;;;;;;;;;;28.69;29.63;101712.91;4923867;29;19919;-80
2022/05/19 14:15:15;;;;;;;;;;;;;;;28.71;29.37;101707.66;4924349;29;19916;-80
2022/05/19 14:18:01;;;;;;;;;;;;;;;28.62;29.87;101707.34;4936710;29;19915;-80
2022/05/19 14:20:48;;;;;;;;;;;;;;;28.58;29.78;101712.19;4934101;29;20377;-79
2022/05/19 14:23:46;;;;;;;;;;;;;;;28.55;30.02;101698.25;4919105;29;19915;-79
2022/05/19 14:26:46;;;;;;;;;;;;;;;28.58;30.14;101689.81;4918466;29;19915;-79
2022/05/19 14:29:37;;;;;;;;;;;;;;;28.58;30.50;101692.59;4926518;29;19919;-79
2022/05/19 14:32:27;;;;;;;;;;;;;;;28.52;30.88;101687.88;4920214;29;19919;-79
2022/05/19 14:35:16;;;;;;;;;;;;;;;28.46;30.35;101685.50;4919657;29;19915;-80
2022/05/19 14:38:03;;;;;;;;;;;;;;;28.46;29.89;101687.50;4925780;29;19915;-80
2022/05/19 14:43:53;;;;;;;;;;;;;;;28.47;30.76;101683.50;4939916;29;20300;-80
2022/05/19 14:46:40;;;;;;;;;;;;;;;28.49;30.03;101676.31;4924005;29;19919;-79
2022/05/19 14:49:28;;;;;;;;;;;;;;;28.43;30.08;101674.38;4941003;29;19915;-81
2022/05/19 14:52:13;;;;;;;;;;;;;;;28.38;30.58;101670.00;4936667;29;19919;-81
2022/05/19 14:54:59;;;;;;;;;;;;;;;28.31;30.57;101663.66;4937468;29;19915;-81